Burkittsville, MD (21718)

2:35 PM EDT on August 28, 2015 (GMT -0400)
Keedysville, MD | | Change Station
CLOSE
Current Station
Personal Weather Station
Location: Keedysville, MD
Elevation: 1027 ft
Nearby Weather Stations

Elev 1027 ft 39.41 °N, 77.68 °W | Updated 32 seconds ago

Partly Cloudy
Partly Cloudy
76.8 °F
Feels Like 79 °F
N
0.0
Wind Variable Wind from SSW
Gusts 0.0 mph

Today
High -- | Low -- °F
--% Chance of Precip.
Yesterday
High -- | Low -- °F
Precip. -- in
6:35 AM 7:47 PM
Waxing Gibbous, 98% visible
Pressure 30.22 in
Visibility 10.0 miles
Clouds Mostly Cloudy 6000 ft
Heat Index 79 °F
Dew Point 61 °F
Humidity 59%
Rainfall 0.00 in
Snow Depth Not available.
UV 5 out of 12
Pollen 9.00 out of 12
Air Quality Not available.
Flu Activity Not available.
METAR KFDK 281747Z 00000KT 10SM BKN060 26/16 A3022
Pressure 30.22 in
Visibility 10.0 miles
Clouds Mostly Cloudy 6000 ft
Heat Index 79 °F
Dew Point 61 °F
Humidity 59%
Rainfall 0.00 in
Snow Depth Not available.
UV 5 out of 12
Pollen 9.00 out of 12
Air Quality Not available.
Flu Activity Not available.
METAR KFDK 281747Z 00000KT 10SM BKN060 26/16 A3022

10-Day Weather Forecast

×

Almanac

Astronomy

Aug. 28, 2015 Rise Set
Actual Time
Civil Twilight
Nautical Twilight
Astronomical Twilight
Moon
Length of Visible Light
Length of Day
Tomorrow will be .
, % of the Moon is Illuminated

Today's Extremes

State Highs State Lows

Community

WunderPhotos

Upload Photos

1,850,453 photos uploaded!

WunderBlogs® & News

Nearby

Air Quality

  Air Quality AQ Index Pollutant
Not available.

Snow Depth

Station Depth Elevation

Earthquake Activity

City Distance Mag. Time & Date
Minimum magnitude displayed is 2.5.

Coastal Water Temperatures

Place Temperature

Stations

Nearby Weather Stations

Station Location Temp. Windchill Dew Point Humidity Wind Precip. Elev Updated Type